sensor_id;sensor_type;location;lat;lon;timestamp;pressure;altitude;pressure_sealevel;temperature;humidity
4167;BME280;2097;51.104;7.150;2023-04-02T00:02:29;97940.09;;;8.47;100.00
4167;BME280;2097;51.104;7.150;2023-04-02T00:05:26;97949.44;;;8.35;100.00
4167;BME280;2097;51.104;7.150;2023-04-02T00:07:57;97946.88;;;8.21;100.00
4167;BME280;2097;51.104;7.150;2023-04-02T00:10:27;97948.91;;;8.16;100.00
4167;BME280;2097;51.104;7.150;2023-04-02T00:13:05;97955.25;;;8.11;100.00
4167;BME280;2097;51.104;7.150;2023-04-02T00:15:46;97964.13;;;8.07;100.00
4167;BME280;2097;51.104;7.150;2023-04-02T00:18:16;97964.59;;;7.99;100.00
4167;BME280;2097;51.104;7.150;2023-04-02T00:20:46;97976.22;;;7.92;100.00
4167;BME280;2097;51.104;7.150;2023-04-02T00:23:16;97984.31;;;7.87;100.00
4167;BME280;2097;51.104;7.150;2023-04-02T00:25:43;97947.06;;;7.63;100.00
4167;BME280;2097;51.104;7.150;2023-04-02T00:28:12;97991.78;;;7.77;100.00
4167;BME280;2097;51.104;7.150;2023-04-02T00:30:47;97991.31;;;7.71;100.00
4167;BME280;2097;51.104;7.150;2023-04-02T00:33:17;97995.19;;;7.64;100.00
4167;BME280;2097;51.104;7.150;2023-04-02T00:35:44;97993.72;;;7.60;100.00
4167;BME280;2097;51.104;7.150;2023-04-02T00:38:18;98004.38;;;7.54;100.00
4167;BME280;2097;51.104;7.150;2023-04-02T00:40:46;97827.03;;;6.41;100.00
4167;BME280;2097;51.104;7.150;2023-04-02T00:43:14;98005.56;;;7.48;100.00
4167;BME280;2097;51.104;7.150;2023-04-02T00:45:43;98016.91;;;7.46;100.00
4167;BME280;2097;51.104;7.150;2023-04-02T00:48:25;98013.00;;;7.39;100.00
4167;BME280;2097;51.104;7.150;2023-04-02T00:50:57;98015.84;;;7.34;100.00
4167;BME280;2097;51.104;7.150;2023-04-02T00:53:27;98019.44;;;7.32;100.00
4167;BME280;2097;51.104;7.150;2023-04-02T00:55:56;98023.13;;;7.28;100.00
4167;BME280;2097;51.104;7.150;2023-04-02T00:58:26;98031.97;;;7.24;100.00
4167;BME280;2097;51.104;7.150;2023-04-02T01:00:54;98037.34;;;7.19;100.00
4167;BME280;2097;51.104;7.150;2023-04-02T01:03:31;98035.78;;;7.17;100.00
4167;BME280;2097;51.104;7.150;2023-04-02T01:06:03;98038.63;;;7.12;100.00
4167;BME280;2097;51.104;7.150;2023-04-02T01:08:45;98045.59;;;7.10;100.00
4167;BME280;2097;51.104;7.150;2023-04-02T01:11:31;98050.88;;;7.09;100.00
4167;BME280;2097;51.104;7.150;2023-04-02T01:14:08;98056.28;;;7.04;100.00
4167;BME280;2097;51.104;7.150;2023-04-02T01:16:44;98059.94;;;7.00;100.00
4167;BME280;2097;51.104;7.150;2023-04-02T01:19:34;98055.94;;;6.95;100.00
4167;BME280;2097;51.104;7.150;2023-04-02T01:22:12;98068.94;;;6.93;100.00
4167;BME280;2097;51.104;7.150;2023-04-02T01:24:42;98083.66;;;6.91;100.00
4167;BME280;2097;51.104;7.150;2023-04-02T01:27:15;98084.72;;;6.87;100.00
4167;BME280;2097;51.104;7.150;2023-04-02T01:29:47;98088.38;;;6.83;100.00
4167;BME280;2097;51.104;7.150;2023-04-02T01:32:17;98074.53;;;6.71;100.00
4167;BME280;2097;51.104;7.150;2023-04-02T01:34:48;98086.31;;;6.74;100.00
4167;BME280;2097;51.104;7.150;2023-04-02T01:37:22;98103.69;;;6.71;100.00
4167;BME280;2097;51.104;7.150;2023-04-02T01:40:05;98098.84;;;6.65;100.00
4167;BME280;2097;51.104;7.150;2023-04-02T01:42:39;98112.75;;;6.63;100.00
4167;BME280;2097;51.104;7.150;2023-04-02T01:45:13;98109.59;;;6.58;100.00
4167;BME280;2097;51.104;7.150;2023-04-02T01:47:42;98117.38;;;6.56;100.00
4167;BME280;2097;51.104;7.150;2023-04-02T01:50:20;98117.63;;;6.52;100.00
4167;BME280;2097;51.104;7.150;2023-04-02T01:52:53;98120.31;;;6.50;100.00
4167;BME280;2097;51.104;7.150;2023-04-02T01:55:28;98128.19;;;6.47;100.00
4167;BME280;2097;51.104;7.150;2023-04-02T01:57:56;98139.31;;;6.48;100.00
4167;BME280;2097;51.104;7.150;2023-04-02T02:00:27;98136.00;;;6.46;100.00
4167;BME280;2097;51.104;7.150;2023-04-02T02:02:54;98141.38;;;6.41;100.00
4167;BME280;2097;51.104;7.150;2023-04-02T02:05:25;98139.13;;;6.35;100.00
4167;BME280;2097;51.104;7.150;2023-04-02T02:07:53;98146.59;;;6.07;100.00
4167;BME280;2097;51.104;7.150;2023-04-02T02:10:25;98152.63;;;6.23;100.00
4167;BME280;2097;51.104;7.150;2023-04-02T02:12:53;98154.44;;;6.21;100.00
4167;BME280;2097;51.104;7.150;2023-04-02T02:15:21;98157.34;;;6.15;100.00
4167;BME280;2097;51.104;7.150;2023-04-02T02:17:54;98160.13;;;6.11;100.00
4167;BME280;2097;51.104;7.150;2023-04-02T02:20:24;98164.00;;;6.02;100.00
4167;BME280;2097;51.104;7.150;2023-04-02T02:22:52;98167.59;;;6.00;100.00
4167;BME280;2097;51.104;7.150;2023-04-02T02:25:21;98178.84;;;5.97;100.00
4167;BME280;2097;51.104;7.150;2023-04-02T02:27:57;98184.91;;;5.96;100.00
4167;BME280;2097;51.104;7.150;2023-04-02T02:30:27;98182.34;;;5.96;100.00
4167;BME280;2097;51.104;7.150;2023-04-02T02:33:00;98193.53;;;5.95;100.00
4167;BME280;2097;51.104;7.150;2023-04-02T02:35:32;98203.03;;;5.95;100.00
4167;BME280;2097;51.104;7.150;2023-04-02T02:38:19;98206.66;;;5.91;100.00
4167;BME280;2097;51.104;7.150;2023-04-02T02:40:52;98212.00;;;5.86;100.00
4167;BME280;2097;51.104;7.150;2023-04-02T02:43:20;98215.72;;;5.81;100.00
4167;BME280;2097;51.104;7.150;2023-04-02T02:45:47;98215.84;;;5.78;100.00
4167;BME280;2097;51.104;7.150;2023-04-02T02:48:18;98231.41;;;5.75;100.00
4167;BME280;2097;51.104;7.150;2023-04-02T02:50:47;98224.81;;;5.69;100.00
4167;BME280;2097;51.104;7.150;2023-04-02T02:53:18;98216.50;;;5.46;100.00
4167;BME280;2097;51.104;7.150;2023-04-02T02:55:46;98233.59;;;5.65;100.00
4167;BME280;2097;51.104;7.150;2023-04-02T02:58:17;98244.94;;;5.61;100.00
4167;BME280;2097;51.104;7.150;2023-04-02T03:00:48;98244.16;;;5.59;100.00
4167;BME280;2097;51.104;7.150;2023-04-02T03:03:20;98250.31;;;5.57;100.00
4167;BME280;2097;51.104;7.150;2023-04-02T03:05:49;98253.69;;;5.57;100.00
4167;BME280;2097;51.104;7.150;2023-04-02T03:08:23;98246.88;;;5.57;100.00
4167;BME280;2097;51.104;7.150;2023-04-02T03:10:55;98259.00;;;5.55;100.00
4167;BME280;2097;51.104;7.150;2023-04-02T03:13:28;98265.13;;;5.52;100.00
4167;BME280;2097;51.104;7.150;2023-04-02T03:16:02;98247.53;;;5.43;100.00
4167;BME280;2097;51.104;7.150;2023-04-02T03:18:41;98268.66;;;5.50;100.00
4167;BME280;2097;51.104;7.150;2023-04-02T03:21:19;98273.88;;;5.48;100.00
4167;BME280;2097;51.104;7.150;2023-04-02T03:23:51;98280.75;;;5.48;100.00
4167;BME280;2097;51.104;7.150;2023-04-02T03:26:23;98285.97;;;5.46;100.00
4167;BME280;2097;51.104;7.150;2023-04-02T03:28:56;98295.47;;;5.46;100.00
4167;BME280;2097;51.104;7.150;2023-04-02T03:31:27;98298.94;;;5.45;100.00
4167;BME280;2097;51.104;7.150;2023-04-02T03:34:00;98307.56;;;5.44;100.00
4167;BME280;2097;51.104;7.150;2023-04-02T03:36:32;98312.13;;;5.37;100.00
4167;BME280;2097;51.104;7.150;2023-04-02T03:39:08;98319.16;;;5.34;100.00
4167;BME280;2097;51.104;7.150;2023-04-02T03:41:40;98330.34;;;5.33;100.00
4167;BME280;2097;51.104;7.150;2023-04-02T03:44:17;98328.72;;;5.30;100.00
4167;BME280;2097;51.104;7.150;2023-04-02T03:46:49;98338.25;;;5.28;100.00
4167;BME280;2097;51.104;7.150;2023-04-02T03:49:27;98344.50;;;5.23;100.00
4167;BME280;2097;51.104;7.150;2023-04-02T03:51:58;98346.16;;;5.24;100.00
4167;BME280;2097;51.104;7.150;2023-04-02T03:54:28;98351.31;;;5.24;100.00
4167;BME280;2097;51.104;7.150;2023-04-02T03:56:55;98349.78;;;5.20;100.00
4167;BME280;2097;51.104;7.150;2023-04-02T03:59:30;98358.38;;;5.19;100.00
4167;BME280;2097;51.104;7.150;2023-04-02T04:02:05;98369.66;;;5.16;100.00
4167;BME280;2097;51.104;7.150;2023-04-02T04:04:38;98363.66;;;5.16;100.00
4167;BME280;2097;51.104;7.150;2023-04-02T04:07:09;98376.59;;;5.14;100.00
4167;BME280;2097;51.104;7.150;2023-04-02T04:09:38;98381.78;;;5.13;100.00
4167;BME280;2097;51.104;7.150;2023-04-02T04:12:15;98375.75;;;5.14;100.00
4167;BME280;2097;51.104;7.150;2023-04-02T04:14:50;98388.72;;;5.11;100.00
4167;BME280;2097;51.104;7.150;2023-04-02T04:17:24;98391.47;;;5.08;100.00
4167;BME280;2097;51.104;7.150;2023-04-02T04:19:58;98393.25;;;5.06;100.00
4167;BME280;2097;51.104;7.150;2023-04-02T04:22:33;98395.06;;;5.04;100.00
4167;BME280;2097;51.104;7.150;2023-04-02T04:25:02;98394.34;;;5.00;100.00
4167;BME280;2097;51.104;7.150;2023-04-02T04:27:35;98397.94;;;4.96;100.00
4167;BME280;2097;51.104;7.150;2023-04-02T04:30:15;98405.84;;;4.92;100.00
4167;BME280;2097;51.104;7.150;2023-04-02T04:32:49;98417.03;;;4.91;100.00
4167;BME280;2097;51.104;7.150;2023-04-02T04:35:27;98431.69;;;4.89;100.00
4167;BME280;2097;51.104;7.150;2023-04-02T04:37:56;98430.00;;;4.88;100.00
4167;BME280;2097;51.104;7.150;2023-04-02T04:40:29;98430.78;;;4.90;100.00
4167;BME280;2097;51.104;7.150;2023-04-02T04:43:02;98448.78;;;4.90;100.00
4167;BME280;2097;51.104;7.150;2023-04-02T04:45:37;98451.34;;;4.90;100.00
4167;BME280;2097;51.104;7.150;2023-04-02T04:48:09;98455.66;;;4.89;100.00
4167;BME280;2097;51.104;7.150;2023-04-02T04:50:46;98460.84;;;4.88;100.00
4167;BME280;2097;51.104;7.150;2023-04-02T04:53:16;98470.44;;;4.84;100.00
4167;BME280;2097;51.104;7.150;2023-04-02T04:55:46;98473.81;;;4.85;100.00
4167;BME280;2097;51.104;7.150;2023-04-02T04:58:21;98480.72;;;4.84;100.00
4167;BME280;2097;51.104;7.150;2023-04-02T05:00:55;98490.91;;;4.86;100.00
4167;BME280;2097;51.104;7.150;2023-04-02T05:03:30;98498.63;;;4.86;100.00
4167;BME280;2097;51.104;7.150;2023-04-02T05:06:07;98499.59;;;4.83;100.00
4167;BME280;2097;51.104;7.150;2023-04-02T05:08:38;98492.91;;;4.79;100.00
4167;BME280;2097;51.104;7.150;2023-04-02T05:11:10;98500.78;;;4.75;100.00
4167;BME280;2097;51.104;7.150;2023-04-02T05:13:43;98508.50;;;4.75;100.00
4167;BME280;2097;51.104;7.150;2023-04-02T05:16:16;98506.00;;;4.73;100.00
4167;BME280;2097;51.104;7.150;2023-04-02T05:18:51;98514.66;;;4.71;100.00
4167;BME280;2097;51.104;7.150;2023-04-02T05:21:26;98525.09;;;4.66;100.00
4167;BME280;2097;51.104;7.150;2023-04-02T05:23:58;98482.63;;;4.37;100.00
4167;BME280;2097;51.104;7.150;2023-04-02T05:26:29;98529.44;;;4.66;100.00
4167;BME280;2097;51.104;7.150;2023-04-02T05:29:01;98537.13;;;4.66;100.00
4167;BME280;2097;51.104;7.150;2023-04-02T05:31:37;98542.28;;;4.66;100.00
4167;BME280;2097;51.104;7.150;2023-04-02T05:34:06;98550.91;;;4.63;100.00
4167;BME280;2097;51.104;7.150;2023-04-02T05:36:35;98562.94;;;4.63;100.00
4167;BME280;2097;51.104;7.150;2023-04-02T05:39:07;98573.16;;;4.64;100.00
4167;BME280;2097;51.104;7.150;2023-04-02T05:41:36;98575.84;;;4.61;100.00
4167;BME280;2097;51.104;7.150;2023-04-02T05:44:07;98570.69;;;4.61;100.00
4167;BME280;2097;51.104;7.150;2023-04-02T05:46:43;98586.97;;;4.62;100.00
4167;BME280;2097;51.104;7.150;2023-04-02T05:49:17;98581.72;;;4.65;100.00
4167;BME280;2097;51.104;7.150;2023-04-02T05:51:49;98556.53;;;4.51;100.00
4167;BME280;2097;51.104;7.150;2023-04-02T05:54:23;98590.22;;;4.67;100.00
4167;BME280;2097;51.104;7.150;2023-04-02T05:56:55;98595.38;;;4.65;100.00
4167;BME280;2097;51.104;7.150;2023-04-02T05:59:27;98490.19;;;3.95;100.00
4167;BME280;2097;51.104;7.150;2023-04-02T06:01:57;98608.31;;;4.64;100.00
4167;BME280;2097;51.104;7.150;2023-04-02T06:04:30;98606.63;;;4.63;100.00
4167;BME280;2097;51.104;7.150;2023-04-02T06:07:04;98625.44;;;4.63;100.00
4167;BME280;2097;51.104;7.150;2023-04-02T06:09:39;98610.19;;;4.59;100.00
4167;BME280;2097;51.104;7.150;2023-04-02T06:12:16;98631.44;;;4.64;100.00
4167;BME280;2097;51.104;7.150;2023-04-02T06:14:45;98634.16;;;4.59;100.00
4167;BME280;2097;51.104;7.150;2023-04-02T06:17:13;98648.84;;;4.56;100.00
4167;BME280;2097;51.104;7.150;2023-04-02T06:19:41;98646.69;;;4.46;100.00
4167;BME280;2097;51.104;7.150;2023-04-02T06:22:17;98660.41;;;4.45;100.00
4167;BME280;2097;51.104;7.150;2023-04-02T06:24:49;98672.50;;;4.41;100.00
4167;BME280;2097;51.104;7.150;2023-04-02T06:27:18;98668.31;;;4.39;100.00
4167;BME280;2097;51.104;7.150;2023-04-02T06:29:49;98674.34;;;4.38;100.00
4167;BME280;2097;51.104;7.150;2023-04-02T06:32:20;98694.91;;;4.38;100.00
4167;BME280;2097;51.104;7.150;2023-04-02T06:34:48;98693.28;;;4.35;100.00
4167;BME280;2097;51.104;7.150;2023-04-02T06:37:22;98696.84;;;4.31;100.00
4167;BME280;2097;51.104;7.150;2023-04-02T06:39:50;98708.16;;;4.26;100.00
4167;BME280;2097;51.104;7.150;2023-04-02T06:42:19;98716.81;;;4.23;100.00
4167;BME280;2097;51.104;7.150;2023-04-02T06:44:47;98721.09;;;4.23;100.00
4167;BME280;2097;51.104;7.150;2023-04-02T06:47:21;98715.25;;;4.19;100.00
4167;BME280;2097;51.104;7.150;2023-04-02T06:49:52;98721.34;;;4.17;100.00
4167;BME280;2097;51.104;7.150;2023-04-02T06:52:24;98721.34;;;4.17;100.00
4167;BME280;2097;51.104;7.150;2023-04-02T06:54:53;98733.28;;;4.18;100.00
4167;BME280;2097;51.104;7.150;2023-04-02T06:57:20;98729.06;;;4.15;100.00
4167;BME280;2097;51.104;7.150;2023-04-02T06:59:47;98736.72;;;4.17;100.00
4167;BME280;2097;51.104;7.150;2023-04-02T07:02:27;98747.03;;;4.15;100.00
4167;BME280;2097;51.104;7.150;2023-04-02T07:05:00;98747.03;;;4.15;100.00
4167;BME280;2097;51.104;7.150;2023-04-02T07:07:29;98757.28;;;4.17;100.00
4167;BME280;2097;51.104;7.150;2023-04-02T07:09:56;98759.84;;;4.17;100.00
4167;BME280;2097;51.104;7.150;2023-04-02T07:12:23;98757.22;;;4.18;100.00
4167;BME280;2097;51.104;7.150;2023-04-02T07:14:51;98766.69;;;4.16;100.00
4167;BME280;2097;51.104;7.150;2023-04-02T07:17:18;98776.97;;;4.16;100.00
4167;BME280;2097;51.104;7.150;2023-04-02T07:19:46;98781.28;;;4.16;100.00
4167;BME280;2097;51.104;7.150;2023-04-02T07:22:15;98784.56;;;4.19;100.00
4167;BME280;2097;51.104;7.150;2023-04-02T07:24:44;98747.16;;;3.86;100.00
4167;BME280;2097;51.104;7.150;2023-04-02T07:27:12;98795.72;;;4.18;100.00
4167;BME280;2097;51.104;7.150;2023-04-02T07:29:39;98799.78;;;4.25;100.00
4167;BME280;2097;51.104;7.150;2023-04-02T07:32:08;98820.94;;;4.33;100.00
4167;BME280;2097;51.104;7.150;2023-04-02T07:34:36;98814.78;;;4.37;100.00
4167;BME280;2097;51.104;7.150;2023-04-02T07:37:02;98814.75;;;4.39;100.00
4167;BME280;2097;51.104;7.150;2023-04-02T07:39:29;98824.13;;;4.40;100.00
4167;BME280;2097;51.104;7.150;2023-04-02T07:41:59;98820.69;;;4.39;100.00
4167;BME280;2097;51.104;7.150;2023-04-02T07:44:26;98836.81;;;4.44;100.00
4167;BME280;2097;51.104;7.150;2023-04-02T07:46:54;98837.41;;;4.52;100.00
4167;BME280;2097;51.104;7.150;2023-04-02T07:49:21;98841.34;;;4.62;100.00
4167;BME280;2097;51.104;7.150;2023-04-02T07:51:48;98848.75;;;4.71;100.00
4167;BME280;2097;51.104;7.150;2023-04-02T07:54:15;98851.19;;;4.74;100.00
4167;BME280;2097;51.104;7.150;2023-04-02T07:56:42;98857.19;;;4.74;100.00
4167;BME280;2097;51.104;7.150;2023-04-02T07:59:10;98853.94;;;4.69;100.00
4167;BME280;2097;51.104;7.150;2023-04-02T08:01:38;98866.69;;;4.72;100.00
4167;BME280;2097;51.104;7.150;2023-04-02T08:04:15;98874.19;;;4.78;100.00
4167;BME280;2097;51.104;7.150;2023-04-02T08:06:42;98882.72;;;4.79;100.00
4167;BME280;2097;51.104;7.150;2023-04-02T08:09:09;98890.41;;;4.80;100.00
4167;BME280;2097;51.104;7.150;2023-04-02T08:11:36;98884.63;;;4.74;100.00
4167;BME280;2097;51.104;7.150;2023-04-02T08:14:02;98894.44;;;4.63;100.00
4167;BME280;2097;51.104;7.150;2023-04-02T08:16:44;98901.97;;;4.67;100.00
4167;BME280;2097;51.104;7.150;2023-04-02T08:19:12;98907.09;;;4.69;100.00
4167;BME280;2097;51.104;7.150;2023-04-02T08:21:39;98897.63;;;4.69;100.00
4167;BME280;2097;51.104;7.150;2023-04-02T08:24:06;98921.16;;;4.83;100.00
4167;BME280;2097;51.104;7.150;2023-04-02T08:26:32;98919.28;;;4.88;100.00
4167;BME280;2097;51.104;7.150;2023-04-02T08:29:00;98921.75;;;4.91;100.00
4167;BME280;2097;51.104;7.150;2023-04-02T08:31:27;98929.31;;;4.96;100.00
4167;BME280;2097;51.104;7.150;2023-04-02T08:33:56;98935.13;;;5.01;100.00
4167;BME280;2097;51.104;7.150;2023-04-02T08:36:26;98946.91;;;5.08;100.00
4167;BME280;2097;51.104;7.150;2023-04-02T08:42:33;98957.41;;;5.26;100.00
4167;BME280;2097;51.104;7.150;2023-04-02T08:45:12;98968.84;;;5.18;100.00
4167;BME280;2097;51.104;7.150;2023-04-02T08:47:47;98974.16;;;5.12;100.00
4167;BME280;2097;51.104;7.150;2023-04-02T08:50:22;98979.31;;;5.12;100.00
4167;BME280;2097;51.104;7.150;2023-04-02T08:52:53;98985.81;;;5.23;100.00
4167;BME280;2097;51.104;7.150;2023-04-02T08:55:29;98992.69;;;5.23;100.00
4167;BME280;2097;51.104;7.150;2023-04-02T08:58:00;98997.72;;;5.26;100.00
4167;BME280;2097;51.104;7.150;2023-04-02T09:00:35;99007.13;;;5.27;100.00
4167;BME280;2097;51.104;7.150;2023-04-02T09:03:07;99008.16;;;5.21;100.00
4167;BME280;2097;51.104;7.150;2023-04-02T09:05:39;99017.50;;;5.24;100.00
4167;BME280;2097;51.104;7.150;2023-04-02T09:08:15;99021.47;;;5.34;100.00
4167;BME280;2097;51.104;7.150;2023-04-02T09:10:50;99024.72;;;5.39;100.00
4167;BME280;2097;51.104;7.150;2023-04-02T09:13:22;98971.88;;;5.04;100.00
4167;BME280;2097;51.104;7.150;2023-04-02T09:15:51;99032.25;;;5.45;100.00
4167;BME280;2097;51.104;7.150;2023-04-02T09:18:20;99045.31;;;5.39;100.00
4167;BME280;2097;51.104;7.150;2023-04-02T09:20:49;99040.00;;;5.43;100.00
4167;BME280;2097;51.104;7.150;2023-04-02T09:23:17;99049.47;;;5.43;100.00
4167;BME280;2097;51.104;7.150;2023-04-02T09:25:47;99050.50;;;5.37;100.00
4167;BME280;2097;51.104;7.150;2023-04-02T09:28:14;99054.03;;;5.35;100.00
4167;BME280;2097;51.104;7.150;2023-04-02T09:30:57;99059.38;;;5.29;100.00
4167;BME280;2097;51.104;7.150;2023-04-02T09:33:40;99063.72;;;5.27;100.00
4167;BME280;2097;51.104;7.150;2023-04-02T09:36:27;99064.34;;;5.33;100.00
4167;BME280;2097;51.104;7.150;2023-04-02T09:39:00;99071.69;;;5.45;100.00
4167;BME280;2097;51.104;7.150;2023-04-02T09:41:31;99060.75;;;5.39;100.00
4167;BME280;2097;51.104;7.150;2023-04-02T09:44:17;99090.28;;;5.53;100.00
4167;BME280;2097;51.104;7.150;2023-04-02T09:46:53;99087.25;;;5.66;100.00
4167;BME280;2097;51.104;7.150;2023-04-02T09:49:25;99041.84;;;5.40;100.00
4167;BME280;2097;51.104;7.150;2023-04-02T09:52:13;99074.41;;;5.65;100.00
4167;BME280;2097;51.104;7.150;2023-04-02T09:54:42;99103.75;;;5.87;100.00
4167;BME280;2097;51.104;7.150;2023-04-02T09:57:17;99112.00;;;5.96;100.00
4167;BME280;2097;51.104;7.150;2023-04-02T10:00:07;99096.28;;;5.79;100.00
4167;BME280;2097;51.104;7.150;2023-04-02T10:02:34;99119.81;;;5.93;100.00
4167;BME280;2097;51.104;7.150;2023-04-02T10:05:02;99129.53;;;5.85;100.00
4167;BME280;2097;51.104;7.150;2023-04-02T10:07:35;99131.22;;;5.86;100.00
4167;BME280;2097;51.104;7.150;2023-04-02T10:10:16;99150.03;;;5.88;100.00
4167;BME280;2097;51.104;7.150;2023-04-02T10:12:44;99144.75;;;5.93;100.00
4167;BME280;2097;51.104;7.150;2023-04-02T10:15:14;99155.56;;;6.02;100.00
4167;BME280;2097;51.104;7.150;2023-04-02T10:17:43;99155.84;;;5.95;100.00
4167;BME280;2097;51.104;7.150;2023-04-02T10:20:17;99162.34;;;5.80;100.00
4167;BME280;2097;51.104;7.150;2023-04-02T10:22:46;99177.00;;;5.77;100.00
4167;BME280;2097;51.104;7.150;2023-04-02T10:25:14;99186.31;;;5.82;100.00
4167;BME280;2097;51.104;7.150;2023-04-02T10:27:45;99185.53;;;5.80;100.00
4167;BME280;2097;51.104;7.150;2023-04-02T10:30:20;99183.03;;;5.77;100.00
4167;BME280;2097;51.104;7.150;2023-04-02T10:32:53;99185.63;;;5.77;100.00
4167;BME280;2097;51.104;7.150;2023-04-02T10:35:38;99186.47;;;5.76;100.00
4167;BME280;2097;51.104;7.150;2023-04-02T10:38:31;99202.22;;;5.93;100.00
4167;BME280;2097;51.104;7.150;2023-04-02T10:41:06;99202.72;;;6.04;100.00
4167;BME280;2097;51.104;7.150;2023-04-02T10:43:45;99207.34;;;6.19;100.00
4167;BME280;2097;51.104;7.150;2023-04-02T10:46:18;99210.06;;;6.16;100.00
4167;BME280;2097;51.104;7.150;2023-04-02T10:48:53;99207.69;;;6.10;100.00
4167;BME280;2097;51.104;7.150;2023-04-02T10:51:35;99213.03;;;6.04;100.00
4167;BME280;2097;51.104;7.150;2023-04-02T10:54:17;99221.56;;;6.06;100.00
4167;BME280;2097;51.104;7.150;2023-04-02T10:56:46;99225.22;;;5.99;100.00
4167;BME280;2097;51.104;7.150;2023-04-02T10:59:17;99226.75;;;6.05;100.00
4167;BME280;2097;51.104;7.150;2023-04-02T11:01:45;99216.31;;;6.09;100.00
4167;BME280;2097;51.104;7.150;2023-04-02T11:04:17;99232.00;;;6.28;100.00
4167;BME280;2097;51.104;7.150;2023-04-02T11:06:48;99238.25;;;6.45;100.00
4167;BME280;2097;51.104;7.150;2023-04-02T11:09:21;99242.88;;;6.60;100.00
4167;BME280;2097;51.104;7.150;2023-04-02T11:11:51;99248.72;;;6.65;100.00
4167;BME280;2097;51.104;7.150;2023-04-02T11:14:23;99260.78;;;6.65;100.00
4167;BME280;2097;51.104;7.150;2023-04-02T11:16:51;99258.91;;;6.70;100.00
4167;BME280;2097;51.104;7.150;2023-04-02T11:19:25;99265.34;;;6.81;100.00
4167;BME280;2097;51.104;7.150;2023-04-02T11:21:54;99267.94;;;7.04;100.00
4167;BME280;2097;51.104;7.150;2023-04-02T11:24:35;99278.34;;;7.25;100.00
4167;BME280;2097;51.104;7.150;2023-04-02T11:27:05;99293.09;;;7.22;100.00
4167;BME280;2097;51.104;7.150;2023-04-02T11:29:35;99292.81;;;7.06;100.00
4167;BME280;2097;51.104;7.150;2023-04-02T11:32:33;99282.22;;;6.89;100.00
4167;BME280;2097;51.104;7.150;2023-04-02T11:35:34;99308.25;;;6.83;100.00
4167;BME280;2097;51.104;7.150;2023-04-02T11:41:08;99308.50;;;6.76;100.00
4167;BME280;2097;51.104;7.150;2023-04-02T11:43:54;99308.72;;;6.70;100.00
4167;BME280;2097;51.104;7.150;2023-04-02T11:46:39;99304.84;;;6.83;100.00
4167;BME280;2097;51.104;7.150;2023-04-02T11:49:55;99319.03;;;6.94;100.00
4167;BME280;2097;51.104;7.150;2023-04-02T11:52:27;99325.03;;;6.95;100.00
4167;BME280;2097;51.104;7.150;2023-04-02T11:55:01;99318.94;;;6.97;100.00
4167;BME280;2097;51.104;7.150;2023-04-02T12:00:44;99326.75;;;7.19;100.00
4167;BME280;2097;51.104;7.150;2023-04-02T12:03:31;99322.19;;;7.27;100.00
4167;BME280;2097;51.104;7.150;2023-04-02T12:06:04;99328.44;;;7.43;100.00
4167;BME280;2097;51.104;7.150;2023-04-02T12:08:42;99326.66;;;7.45;100.00
4167;BME280;2097;51.104;7.150;2023-04-02T12:11:16;99327.97;;;7.32;100.00
4167;BME280;2097;51.104;7.150;2023-04-02T12:13:49;99333.72;;;7.40;100.00
4167;BME280;2097;51.104;7.150;2023-04-02T12:16:17;99331.72;;;7.48;100.00
4167;BME280;2097;51.104;7.150;2023-04-02T12:18:46;99330.47;;;7.58;100.00
4167;BME280;2097;51.104;7.150;2023-04-02T12:21:16;99328.91;;;7.54;100.00
4167;BME280;2097;51.104;7.150;2023-04-02T12:23:45;99346.34;;;7.47;100.00
4167;BME280;2097;51.104;7.150;2023-04-02T12:26:31;99343.72;;;7.49;100.00
4167;BME280;2097;51.104;7.150;2023-04-02T12:29:16;99357.41;;;7.51;100.00
4167;BME280;2097;51.104;7.150;2023-04-02T12:31:47;99366.63;;;7.58;100.00
4167;BME280;2097;51.104;7.150;2023-04-02T12:34:15;99346.97;;;7.54;100.00
4167;BME280;2097;51.104;7.150;2023-04-02T12:36:56;99357.28;;;7.77;100.00
4167;BME280;2097;51.104;7.150;2023-04-02T12:39:27;99381.78;;;7.89;100.00
4167;BME280;2097;51.104;7.150;2023-04-02T12:41:55;99379.97;;;7.91;100.00
4167;BME280;2097;51.104;7.150;2023-04-02T12:44:25;99368.75;;;7.92;100.00
4167;BME280;2097;51.104;7.150;2023-04-02T12:46:53;99359.78;;;8.01;100.00
4167;BME280;2097;51.104;7.150;2023-04-02T12:49:30;99362.84;;;8.10;100.00
4167;BME280;2097;51.104;7.150;2023-04-02T12:52:01;99373.50;;;8.03;99.64
4167;BME280;2097;51.104;7.150;2023-04-02T12:54:33;99375.19;;;8.04;99.44
4167;BME280;2097;51.104;7.150;2023-04-02T12:57:19;99371.41;;;8.12;98.84
4167;BME280;2097;51.104;7.150;2023-04-02T12:59:48;99380.94;;;8.10;98.05
4167;BME280;2097;51.104;7.150;2023-04-02T13:02:17;99382.09;;;8.03;98.03
4167;BME280;2097;51.104;7.150;2023-04-02T13:04:46;99377.75;;;7.83;97.53
4167;BME280;2097;51.104;7.150;2023-04-02T13:07:15;99379.72;;;7.76;98.20
4167;BME280;2097;51.104;7.150;2023-04-02T13:09:46;99386.72;;;7.95;98.17
4167;BME280;2097;51.104;7.150;2023-04-02T13:12:29;99391.69;;;8.23;97.06
4167;BME280;2097;51.104;7.150;2023-04-02T13:15:00;99387.59;;;8.17;96.41
4167;BME280;2097;51.104;7.150;2023-04-02T13:17:39;99386.72;;;8.18;96.55
4167;BME280;2097;51.104;7.150;2023-04-02T13:20:29;99392.78;;;8.17;95.60
4167;BME280;2097;51.104;7.150;2023-04-02T13:23:00;99401.22;;;8.22;95.66
4167;BME280;2097;51.104;7.150;2023-04-02T13:25:29;99405.38;;;8.48;95.17
4167;BME280;2097;51.104;7.150;2023-04-02T13:27:57;99410.66;;;8.66;94.40
4167;BME280;2097;51.104;7.150;2023-04-02T13:30:26;99409.00;;;8.85;93.60
4167;BME280;2097;51.104;7.150;2023-04-02T13:32:54;99420.16;;;9.07;93.12
4167;BME280;2097;51.104;7.150;2023-04-02T13:35:21;99422.34;;;9.36;92.08
4167;BME280;2097;51.104;7.150;2023-04-02T13:37:48;99426.47;;;9.60;91.25
4167;BME280;2097;51.104;7.150;2023-04-02T13:40:15;99430.84;;;9.78;90.71
4167;BME280;2097;51.104;7.150;2023-04-02T13:42:43;99437.03;;;9.94;90.22
4167;BME280;2097;51.104;7.150;2023-04-02T13:45:23;99442.75;;;10.02;89.76
4167;BME280;2097;51.104;7.150;2023-04-02T13:47:52;99447.97;;;9.82;89.80
4167;BME280;2097;51.104;7.150;2023-04-02T13:50:21;99363.44;;;9.21;90.78
4167;BME280;2097;51.104;7.150;2023-04-02T13:52:50;99453.28;;;9.59;90.51
4167;BME280;2097;51.104;7.150;2023-04-02T13:55:23;99450.78;;;9.57;90.17
4167;BME280;2097;51.104;7.150;2023-04-02T13:57:51;99454.59;;;9.29;90.75
4167;BME280;2097;51.104;7.150;2023-04-02T14:00:19;99464.69;;;9.15;90.61
4167;BME280;2097;51.104;7.150;2023-04-02T14:02:48;99475.06;;;8.94;90.97